Time;durP1;ratioP1;P1;durP2;ratioP2;P2;SDS_P1;SDS_P2;PMS_P1;PMS_P2;Temp;Humidity;BMP_temperature;BMP_pressure;BME280_temperature;BME280_humidity;BME280_pressure;Samples;Min_cycle;Max_cycle;Signal;HPM_P1;HPM_P2
2022/05/08 00:00:31;;;;;;;4.25;2.30;;;;;;;;;;5050663;28;20044;-69
2022/05/08 00:02:58;;;;;;;5.65;2.80;;;;;;;;;;5050860;28;20395;-69
2022/05/08 00:05:24;;;;;;;7.53;2.58;;;;;;;;;;5050131;28;20053;-70
2022/05/08 00:07:50;;;;;;;5.57;2.33;;;;;;;;;;5050543;28;20422;-68
2022/05/08 00:10:16;;;;;;;5.60;2.90;;;;;;;;;;5050105;28;20160;-68
2022/05/08 00:12:42;;;;;;;6.63;2.60;;;;;;;;;;5050356;28;20057;-68
2022/05/08 00:15:08;;;;;;;3.33;2.00;;;;;;;;;;5049707;28;20045;-69
2022/05/08 00:17:34;;;;;;;5.47;2.58;;;;;;;;;;5050394;28;20041;-68
2022/05/08 00:20:04;;;;;;;4.47;2.53;;;;;;;;;;5049925;28;20091;-68
2022/05/08 00:22:30;;;;;;;6.32;2.30;;;;;;;;;;5050235;28;20041;-68
2022/05/08 00:24:56;;;;;;;6.72;2.72;;;;;;;;;;5050107;28;20072;-68
2022/05/08 00:27:23;;;;;;;5.30;2.35;;;;;;;;;;5049675;28;20230;-68
2022/05/08 00:29:49;;;;;;;6.80;2.33;;;;;;;;;;5050175;28;20041;-68
2022/05/08 00:32:15;;;;;;;5.82;2.58;;;;;;;;;;5049987;28;20041;-69
2022/05/08 00:34:41;;;;;;;4.72;2.38;;;;;;;;;;5049288;28;20175;-68
2022/05/08 00:37:07;;;;;;;6.18;2.85;;;;;;;;;;5031636;28;20124;-68
2022/05/08 00:39:33;;;;;;;9.85;2.55;;;;;;;;;;5050076;28;20057;-68
2022/05/08 00:42:02;;;;;;;4.35;2.25;;;;;;;;;;5049314;28;20045;-68
2022/05/08 00:44:28;;;;;;;6.15;2.58;;;;;;;;;;5049704;28;20037;-68
2022/05/08 00:46:54;;;;;;;4.28;2.40;;;;;;;;;;5049777;28;20044;-69
2022/05/08 00:49:20;;;;;;;4.38;2.40;;;;;;;;;;5049283;28;20056;-68
2022/05/08 00:51:50;;;;;;;5.47;2.50;;;;;;;;;;5049454;28;20060;-68
2022/05/08 00:54:16;;;;;;;5.65;2.20;;;;;;;;;;5049576;28;20048;-69
2022/05/08 00:56:45;;;;;;;4.82;2.40;;;;;;;;;;5049515;28;20427;-69
2022/05/08 00:59:11;;;;;;;6.13;2.45;;;;;;;;;;5032000;28;20095;-69
2022/05/08 01:01:37;;;;;;;6.75;2.30;;;;;;;;;;5049679;28;20060;-70
2022/05/08 01:04:04;;;;;;;4.85;2.25;;;;;;;;;;5048929;28;20048;-70
2022/05/08 01:06:31;;;;;;;5.20;2.38;;;;;;;;;;5031617;28;20045;-69
2022/05/08 01:08:57;;;;;;;5.60;2.28;;;;;;;;;;5031685;28;20049;-69
2022/05/08 01:11:24;;;;;;;5.05;2.28;;;;;;;;;;5049176;28;20098;-69
2022/05/08 01:13:50;;;;;;;4.28;2.22;;;;;;;;;;5031044;28;20057;-70
2022/05/08 01:16:17;;;;;;;5.70;2.58;;;;;;;;;;5048912;28;20041;-67
2022/05/08 01:18:44;;;;;;;5.93;2.22;;;;;;;;;;5049398;28;20045;-69
2022/05/08 01:21:11;;;;;;;3.97;1.95;;;;;;;;;;5048966;28;20154;-68
2022/05/08 01:23:38;;;;;;;5.35;2.58;;;;;;;;;;5049165;28;20098;-68
2022/05/08 01:26:04;;;;;;;4.30;2.30;;;;;;;;;;5030912;28;20111;-68
2022/05/08 01:28:30;;;;;;;3.65;1.80;;;;;;;;;;5049146;28;20045;-68
2022/05/08 01:30:56;;;;;;;3.15;2.00;;;;;;;;;;5048960;28;20071;-69
2022/05/08 01:33:23;;;;;;;4.35;2.20;;;;;;;;;;5048894;28;20076;-69
2022/05/08 01:35:49;;;;;;;3.65;2.05;;;;;;;;;;5048819;28;20049;-69
2022/05/08 01:38:17;;;;;;;4.75;1.75;;;;;;;;;;5048372;28;20481;-68
2022/05/08 01:40:43;;;;;;;4.82;2.10;;;;;;;;;;5048902;28;20045;-68
2022/05/08 01:43:13;;;;;;;4.05;2.10;;;;;;;;;;5048616;28;20478;-68
2022/05/08 01:45:39;;;;;;;5.07;1.98;;;;;;;;;;5048851;28;20471;-69
2022/05/08 01:48:25;;;;;;;5.53;1.95;;;;;;;;;;5030487;28;20493;-69
2022/05/08 01:50:55;;;;;;;6.45;2.35;;;;;;;;;;5048783;28;20461;-68
2022/05/08 01:53:22;;;;;;;7.47;2.10;;;;;;;;;;5048756;28;20432;-68
2022/05/08 01:55:52;;;;;;;6.30;2.33;;;;;;;;;;5048208;28;20067;-67
2022/05/08 01:58:18;;;;;;;7.78;2.30;;;;;;;;;;5048723;28;20056;-68
2022/05/08 02:00:44;;;;;;;4.55;2.05;;;;;;;;;;5048498;28;20051;-68
2022/05/08 02:03:10;;;;;;;7.30;1.73;;;;;;;;;;5048250;28;20413;-67
2022/05/08 02:05:39;;;;;;;6.25;2.03;;;;;;;;;;5048667;28;20098;-69
2022/05/08 02:08:05;;;;;;;5.47;1.92;;;;;;;;;;5048826;28;20540;-68
2022/05/08 02:10:31;;;;;;;4.85;2.40;;;;;;;;;;5048199;28;20056;-68
2022/05/08 02:12:58;;;;;;;6.45;2.33;;;;;;;;;;5048214;28;20049;-69
2022/05/08 02:15:29;;;;;;;4.00;2.08;;;;;;;;;;5048672;28;20090;-68
2022/05/08 02:17:57;;;;;;;4.03;1.80;;;;;;;;;;5048680;28;20839;-68
2022/05/08 02:20:23;;;;;;;4.35;1.98;;;;;;;;;;5048528;28;20525;-68
2022/05/08 02:22:49;;;;;;;4.28;2.35;;;;;;;;;;5048125;28;20084;-68
2022/05/08 02:25:15;;;;;;;4.22;1.67;;;;;;;;;;5030543;28;20045;-69
2022/05/08 02:27:44;;;;;;;6.18;2.45;;;;;;;;;;5048303;28;20410;-68
2022/05/08 02:30:11;;;;;;;4.93;2.10;;;;;;;;;;5047757;28;20115;-68
2022/05/08 02:32:38;;;;;;;5.88;1.95;;;;;;;;;;5047999;28;20094;-68
2022/05/08 02:35:06;;;;;;;4.97;2.10;;;;;;;;;;5030674;28;20391;-69
2022/05/08 02:37:32;;;;;;;4.28;1.73;;;;;;;;;;5048473;28;20083;-69
2022/05/08 02:39:58;;;;;;;4.00;1.85;;;;;;;;;;5047813;28;20076;-68
2022/05/08 02:42:25;;;;;;;6.10;1.90;;;;;;;;;;5047767;28;20465;-68
2022/05/08 02:44:51;;;;;;;6.32;2.00;;;;;;;;;;5048267;28;20049;-68
2022/05/08 02:47:17;;;;;;;6.07;2.42;;;;;;;;;;5048200;28;20045;-69
2022/05/08 02:49:43;;;;;;;4.38;2.00;;;;;;;;;;5030459;28;20067;-69
2022/05/08 02:52:09;;;;;;;5.95;2.08;;;;;;;;;;5047737;28;20127;-69
2022/05/08 02:54:35;;;;;;;4.28;2.00;;;;;;;;;;5048089;28;20067;-69
2022/05/08 02:59:45;;;;;;;3.33;2.10;;;;;;;;;;5051912;28;20052;-69
2022/05/08 03:02:12;;;;;;;4.85;1.77;;;;;;;;;;5051670;28;20053;-69
2022/05/08 03:04:38;;;;;;;4.82;2.03;;;;;;;;;;5051619;28;20080;-68
2022/05/08 03:07:04;;;;;;;5.50;2.15;;;;;;;;;;5051580;28;20053;-68
2022/05/08 03:09:30;;;;;;;5.07;1.80;;;;;;;;;;5051535;28;20044;-68
2022/05/08 03:11:56;;;;;;;3.88;1.92;;;;;;;;;;5051273;28;20131;-68
2022/05/08 03:14:24;;;;;;;3.50;1.70;;;;;;;;;;5001166;28;20099;-68
2022/05/08 03:16:50;;;;;;;5.18;2.00;;;;;;;;;;5033687;28;20044;-68
2022/05/08 03:19:18;;;;;;;3.63;1.63;;;;;;;;;;5051260;28;20041;-68
2022/05/08 03:21:48;;;;;;;3.55;1.83;;;;;;;;;;5033624;28;20395;-69
2022/05/08 03:24:14;;;;;;;5.38;2.03;;;;;;;;;;5033428;28;20124;-69
2022/05/08 03:26:40;;;;;;;5.18;2.15;;;;;;;;;;5050963;28;20040;-69
2022/05/08 03:29:07;;;;;;;5.60;2.40;;;;;;;;;;5051317;28;20131;-69
2022/05/08 03:31:34;;;;;;;3.30;1.75;;;;;;;;;;5051093;28;20049;-69
2022/05/08 03:34:00;;;;;;;4.05;1.90;;;;;;;;;;5050840;28;20144;-69
2022/05/08 03:36:26;;;;;;;2.95;2.00;;;;;;;;;;5051170;28;20472;-69
2022/05/08 03:38:52;;;;;;;4.45;1.80;;;;;;;;;;5050543;28;20513;-69
2022/05/08 03:41:19;;;;;;;11.93;2.28;;;;;;;;;;5050730;28;20103;-66
2022/05/08 03:43:46;;;;;;;6.15;1.77;;;;;;;;;;5051015;28;20049;-68
2022/05/08 03:46:13;;;;;;;4.78;1.80;;;;;;;;;;5032578;28;20045;-69
2022/05/08 03:48:39;;;;;;;5.53;2.10;;;;;;;;;;5050644;28;20051;-68
2022/05/08 03:51:05;;;;;;;4.20;1.60;;;;;;;;;;5050922;28;20402;-68
2022/05/08 03:53:32;;;;;;;5.63;2.03;;;;;;;;;;5050956;28;20056;-68
2022/05/08 03:55:58;;;;;;;6.72;1.98;;;;;;;;;;5050723;28;20059;-68
2022/05/08 03:58:24;;;;;;;3.90;1.70;;;;;;;;;;5032508;28;20489;-68
2022/05/08 04:00:50;;;;;;;4.40;1.60;;;;;;;;;;5050518;28;20100;-68
2022/05/08 04:03:16;;;;;;;5.65;1.55;;;;;;;;;;5050691;28;20048;-68
2022/05/08 04:05:42;;;;;;;4.78;1.90;;;;;;;;;;5056241;28;20127;-69
2022/05/08 04:08:08;;;;;;;3.90;1.90;;;;;;;;;;5069852;28;20105;-69
2022/05/08 04:10:34;;;;;;;3.28;1.50;;;;;;;;;;5069799;28;20080;-69
2022/05/08 04:13:00;;;;;;;4.13;1.65;;;;;;;;;;5051086;28;20053;-68
2022/05/08 04:18:11;;;;;;;3.78;1.67;;;;;;;;;;5050558;28;20048;-69
2022/05/08 04:20:37;;;;;;;6.70;1.80;;;;;;;;;;5050631;28;20453;-68
2022/05/08 04:25:51;;;;;;;4.20;1.60;;;;;;;;;;5050219;28;20052;-68
2022/05/08 04:28:19;;;;;;;5.60;1.83;;;;;;;;;;5050387;28;20132;-68
2022/05/08 04:30:45;;;;;;;4.28;1.27;;;;;;;;;;5049767;28;20048;-68
2022/05/08 04:33:11;;;;;;;4.32;1.58;;;;;;;;;;5049989;28;20048;-68
2022/05/08 04:35:37;;;;;;;3.33;1.83;;;;;;;;;;5032712;28;20041;-68
2022/05/08 04:38:03;;;;;;;3.90;1.40;;;;;;;;;;5050066;28;20091;-68
2022/05/08 04:40:29;;;;;;;5.13;1.77;;;;;;;;;;5049766;28;20132;-68
2022/05/08 04:42:55;;;;;;;3.17;1.65;;;;;;;;;;5049587;28;20046;-68
2022/05/08 04:45:21;;;;;;;2.65;1.45;;;;;;;;;;5050058;28;20099;-69
2022/05/08 04:47:47;;;;;;;3.63;1.60;;;;;;;;;;5049646;28;20552;-69
2022/05/08 04:50:13;;;;;;;5.00;1.50;;;;;;;;;;5049668;28;20048;-68
2022/05/08 04:52:39;;;;;;;2.95;1.48;;;;;;;;;;5050097;28;20465;-68
2022/05/08 04:55:06;;;;;;;3.25;1.67;;;;;;;;;;5049147;28;20387;-68
2022/05/08 04:57:32;;;;;;;3.72;1.60;;;;;;;;;;5049925;28;20388;-68
2022/05/08 04:59:58;;;;;;;3.42;1.50;;;;;;;;;;5049790;28;20036;-69
2022/05/08 05:02:24;;;;;;;3.47;1.63;;;;;;;;;;5050108;28;20410;-69
2022/05/08 05:04:50;;;;;;;3.20;1.50;;;;;;;;;;5031791;28;20045;-69
2022/05/08 05:07:16;;;;;;;2.67;1.25;;;;;;;;;;5049805;28;20445;-69
2022/05/08 05:09:42;;;;;;;3.05;1.48;;;;;;;;;;5049760;28;20536;-69
2022/05/08 05:12:09;;;;;;;3.65;1.35;;;;;;;;;;5049512;28;20060;-69
2022/05/08 05:14:35;;;;;;;3.47;1.50;;;;;;;;;;5049499;28;20356;-69
2022/05/08 05:17:01;;;;;;;3.70;1.50;;;;;;;;;;5049788;28;20037;-69
2022/05/08 05:19:28;;;;;;;3.25;1.50;;;;;;;;;;5049533;28;20044;-69
2022/05/08 05:21:54;;;;;;;6.05;1.90;;;;;;;;;;5048754;28;20052;-68
2022/05/08 05:24:20;;;;;;;5.40;1.63;;;;;;;;;;5049034;28;20044;-68
2022/05/08 05:26:46;;;;;;;3.60;1.60;;;;;;;;;;5049415;28;20395;-68
2022/05/08 05:29:12;;;;;;;5.15;1.60;;;;;;;;;;5049242;28;20063;-68
2022/05/08 05:31:38;;;;;;;3.97;1.73;;;;;;;;;;5049393;28;20095;-68
2022/05/08 05:34:04;;;;;;;3.08;1.30;;;;;;;;;;5048990;28;20134;-69
2022/05/08 05:36:30;;;;;;;3.10;1.42;;;;;;;;;;5049208;28;20041;-69
2022/05/08 05:38:56;;;;;;;3.25;1.80;;;;;;;;;;5048718;28;20044;-68
2022/05/08 05:41:22;;;;;;;4.72;1.65;;;;;;;;;;5048881;28;20059;-69
2022/05/08 05:43:48;;;;;;;4.50;1.85;;;;;;;;;;5048884;28;20417;-68
2022/05/08 05:48:59;;;;;;;5.97;1.48;;;;;;;;;;5048541;28;20123;-68
2022/05/08 05:51:25;;;;;;;3.45;1.58;;;;;;;;;;5048836;28;20045;-67
2022/05/08 05:53:51;;;;;;;2.88;1.40;;;;;;;;;;5048887;28;20052;-68
2022/05/08 05:56:17;;;;;;;3.50;1.30;;;;;;;;;;5049080;28;20045;-67
2022/05/08 05:58:43;;;;;;;2.67;1.25;;;;;;;;;;5048953;28;20493;-67
2022/05/08 06:01:09;;;;;;;2.28;1.50;;;;;;;;;;5048367;28;20139;-68
2022/05/08 06:03:37;;;;;;;3.30;1.58;;;;;;;;;;5048504;28;20170;-68
2022/05/08 06:06:03;;;;;;;3.55;1.55;;;;;;;;;;5064603;28;20060;-68
2022/05/08 06:08:29;;;;;;;5.00;2.63;;;;;;;;;;5048453;28;20402;-67
2022/05/08 06:10:55;;;;;;;5.53;1.52;;;;;;;;;;5048457;28;20052;-68
2022/05/08 06:13:22;;;;;;;4.32;1.30;;;;;;;;;;5048979;28;20585;-68
2022/05/08 06:15:48;;;;;;;4.10;1.48;;;;;;;;;;5048554;28;20051;-68
2022/05/08 06:18:14;;;;;;;2.55;1.20;;;;;;;;;;5048512;28;20041;-68
2022/05/08 06:20:40;;;;;;;2.70;1.10;;;;;;;;;;5048697;28;20149;-68
2022/05/08 06:23:06;;;;;;;4.40;1.40;;;;;;;;;;5048358;28;20510;-68
2022/05/08 06:25:32;;;;;;;5.18;1.50;;;;;;;;;;5048114;28;20123;-68
2022/05/08 06:27:58;;;;;;;4.03;1.50;;;;;;;;;;5063985;28;20056;-68
2022/05/08 06:30:24;;;;;;;1.98;1.20;;;;;;;;;;5048518;28;20044;-69
2022/05/08 06:32:50;;;;;;;4.57;1.65;;;;;;;;;;5050001;28;20490;-68
2022/05/08 06:35:16;;;;;;;4.30;1.40;;;;;;;;;;5052567;28;20123;-68
2022/05/08 06:37:42;;;;;;;3.58;1.50;;;;;;;;;;5051994;28;20099;-68
2022/05/08 06:40:08;;;;;;;3.55;1.55;;;;;;;;;;5051968;28;20041;-68
2022/05/08 06:42:35;;;;;;;3.00;1.40;;;;;;;;;;5052414;28;20045;-69
2022/05/08 06:45:02;;;;;;;2.83;1.73;;;;;;;;;;5052462;28;20502;-68
2022/05/08 06:47:28;;;;;;;3.05;1.38;;;;;;;;;;5051692;28;20055;-69
2022/05/08 06:49:54;;;;;;;2.72;1.20;;;;;;;;;;5052162;28;20045;-69
2022/05/08 06:52:20;;;;;;;4.57;1.60;;;;;;;;;;5052281;28;20037;-68
2022/05/08 06:54:47;;;;;;;3.90;1.30;;;;;;;;;;5051860;28;20060;-69
2022/05/08 06:57:13;;;;;;;4.10;1.50;;;;;;;;;;5034044;28;20592;-70
2022/05/08 07:02:23;;;;;;;8.07;1.85;;;;;;;;;;5052027;28;20104;-68
2022/05/08 07:04:49;;;;;;;5.05;1.60;;;;;;;;;;5034308;28;20041;-69
2022/05/08 07:07:15;;;;;;;6.05;1.75;;;;;;;;;;5051879;28;20387;-68
2022/05/08 07:09:41;;;;;;;5.53;1.52;;;;;;;;;;5051509;28;20053;-68
2022/05/08 07:12:08;;;;;;;6.15;1.40;;;;;;;;;;5051503;28;20056;-68
2022/05/08 07:14:34;;;;;;;4.40;1.73;;;;;;;;;;5051797;28;20091;-67
2022/05/08 07:17:00;;;;;;;2.92;1.10;;;;;;;;;;5051547;28;20441;-67
2022/05/08 07:19:26;;;;;;;4.80;1.33;;;;;;;;;;5051125;28;20103;-67
2022/05/08 07:21:52;;;;;;;2.42;1.05;;;;;;;;;;5051603;28;20052;-67
2022/05/08 07:24:18;;;;;;;5.35;1.40;;;;;;;;;;5051886;28;20072;-67
2022/05/08 07:26:45;;;;;;;3.15;1.33;;;;;;;;;;5051310;28;20044;-67
2022/05/08 07:29:12;;;;;;;4.00;1.15;;;;;;;;;;5050912;28;20168;-67
2022/05/08 07:31:38;;;;;;;3.80;1.52;;;;;;;;;;5051317;28;20536;-68
2022/05/08 07:36:49;;;;;;;2.53;1.40;;;;;;;;;;5051255;28;20049;-68
2022/05/08 07:39:15;;;;;;;2.65;1.27;;;;;;;;;;5050945;28;20049;-67
2022/05/08 07:41:41;;;;;;;2.58;1.10;;;;;;;;;;5051658;28;20045;-67
2022/05/08 07:44:07;;;;;;;2.83;1.10;;;;;;;;;;5066189;28;20063;-67
2022/05/08 07:46:33;;;;;;;4.07;1.20;;;;;;;;;;5051437;28;20124;-68
2022/05/08 07:48:59;;;;;;;4.82;1.30;;;;;;;;;;5051083;28;20087;-69
2022/05/08 07:51:25;;;;;;;4.97;1.20;;;;;;;;;;5050712;28;20045;-67
2022/05/08 07:53:51;;;;;;;2.28;1.00;;;;;;;;;;5032954;28;20048;-67
2022/05/08 07:56:17;;;;;;;2.28;1.08;;;;;;;;;;5049736;28;20116;-66
2022/05/08 07:58:43;;;;;;;3.47;1.08;;;;;;;;;;5032484;28;20056;-67
2022/05/08 08:01:10;;;;;;;3.70;1.08;;;;;;;;;;5050170;28;20048;-68
2022/05/08 08:03:36;;;;;;;2.53;1.15;;;;;;;;;;5032072;28;20063;-68
2022/05/08 08:06:02;;;;;;;3.92;1.63;;;;;;;;;;5049996;28;20056;-68
2022/05/08 08:08:28;;;;;;;4.15;1.85;;;;;;;;;;5050868;28;20037;-68
2022/05/08 08:11:03;;;;;;;4.45;1.73;;;;;;;;;;5031938;28;20308;-69
2022/05/08 08:13:31;;;;;;;4.43;1.40;;;;;;;;;;5049578;28;20148;-68
2022/05/08 08:15:57;;;;;;;4.63;1.50;;;;;;;;;;5050227;28;20044;-68
2022/05/08 08:18:23;;;;;;;3.97;1.95;;;;;;;;;;5049682;28;20084;-67
2022/05/08 08:20:50;;;;;;;4.03;1.70;;;;;;;;;;5031825;28;20037;-67
2022/05/08 08:23:16;;;;;;;4.63;1.90;;;;;;;;;;5050185;28;20407;-68
2022/05/08 08:25:43;;;;;;;4.15;1.80;;;;;;;;;;5050411;28;20080;-67
2022/05/08 08:28:09;;;;;;;4.78;2.08;;;;;;;;;;5050194;28;20045;-67
2022/05/08 08:30:35;;;;;;;3.75;1.80;;;;;;;;;;5049723;28;20056;-67
2022/05/08 08:33:01;;;;;;;4.72;1.90;;;;;;;;;;5032487;28;20041;-67
2022/05/08 08:35:27;;;;;;;5.78;2.03;;;;;;;;;;5050101;28;20048;-67
2022/05/08 08:37:54;;;;;;;5.40;1.98;;;;;;;;;;5049845;28;20617;-68
2022/05/08 08:40:20;;;;;;;5.28;2.13;;;;;;;;;;5049855;28;20052;-67
2022/05/08 08:42:47;;;;;;;4.47;2.00;;;;;;;;;;5049381;28;20044;-66
2022/05/08 08:48:11;;;;;;;7.10;2.58;;;;;;;;;;5049861;28;20083;-68
2022/05/08 08:50:37;;;;;;;;;;;;;;;;;;5050421;28;20049;-68
2022/05/08 08:53:04;;;;;;;4.65;2.28;;;;;;;;;;5049402;28;19924;-67
2022/05/08 08:55:32;;;;;;;5.18;2.35;;;;;;;;;;5031028;28;20410;-68
2022/05/08 08:57:59;;;;;;;4.20;1.80;;;;;;;;;;5031624;28;20045;-69
2022/05/08 09:00:25;;;;;;;3.33;1.70;;;;;;;;;;5031800;28;20045;-69
2022/05/08 09:02:55;;;;;;;5.40;2.58;;;;;;;;;;5049794;28;20560;-69
2022/05/08 09:05:26;;;;;;;4.95;2.55;;;;;;;;;;5049190;28;20143;-69
2022/05/08 09:07:53;;;;;;;5.80;2.58;;;;;;;;;;5031336;28;20118;-68
2022/05/08 09:10:20;;;;;;;5.88;2.88;;;;;;;;;;5049399;28;20198;-68
2022/05/08 09:12:52;;;;;;;6.35;2.58;;;;;;;;;;5049659;28;20468;-68
2022/05/08 09:15:21;;;;;;;4.72;2.65;;;;;;;;;;5049521;28;20509;-68
2022/05/08 09:17:48;;;;;;;5.38;2.60;;;;;;;;;;5049711;28;20049;-68
2022/05/08 09:20:29;;;;;;;5.68;2.30;;;;;;;;;;5048645;28;20049;-68
2022/05/08 09:23:14;;;;;;;4.18;2.25;;;;;;;;;;5049468;28;20410;-68
2022/05/08 09:25:45;;;;;;;6.47;2.90;;;;;;;;;;5049007;28;20048;-68
2022/05/08 09:28:15;;;;;;;6.10;2.85;;;;;;;;;;5048702;28;20475;-69
2022/05/08 09:31:01;;;;;;;4.40;2.15;;;;;;;;;;5049461;28;20067;-68
2022/05/08 09:33:31;;;;;;;4.30;2.15;;;;;;;;;;5048385;28;20049;-68
2022/05/08 09:35:58;;;;;;;5.75;2.35;;;;;;;;;;5048826;28;20041;-68
2022/05/08 09:38:40;;;;;;;6.43;2.70;;;;;;;;;;5048995;28;20479;-67
2022/05/08 09:41:07;;;;;;;4.90;2.40;;;;;;;;;;5048809;28;20056;-66
2022/05/08 09:43:36;;;;;;;4.72;1.98;;;;;;;;;;5049115;28;20087;-68
2022/05/08 09:46:02;;;;;;;;;;;;;;;;;;5048517;28;20045;-69
2022/05/08 09:48:29;;;;;;;5.47;1.95;;;;;;;;;;5048837;28;19951;-67
2022/05/08 09:50:57;;;;;;;4.78;2.10;;;;;;;;;;5048897;28;20049;-68
2022/05/08 09:53:24;;;;;;;5.38;1.90;;;;;;;;;;5049056;28;20061;-68
2022/05/08 09:55:52;;;;;;;6.22;2.20;;;;;;;;;;5048457;28;20044;-68
2022/05/08 09:58:18;;;;;;;5.20;2.38;;;;;;;;;;5048159;28;20453;-68
2022/05/08 10:00:45;;;;;;;5.32;1.70;;;;;;;;;;5031140;28;20394;-68
2022/05/08 10:03:11;;;;;;;4.82;2.15;;;;;;;;;;5048505;28;20037;-70
2022/05/08 10:05:38;;;;;;;4.65;1.95;;;;;;;;;;5048600;28;20041;-69
2022/05/08 10:08:04;;;;;;;5.72;2.00;;;;;;;;;;5048085;28;20044;-69
2022/05/08 10:13:55;;;;;;;4.45;2.03;;;;;;;;;;5048251;28;20053;-67
2022/05/08 10:16:40;;;;;;;5.25;1.90;;;;;;;;;;5048904;28;20384;-67
2022/05/08 10:19:19;;;;;;;4.43;1.58;;;;;;;;;;5048286;28;20500;-68
2022/05/08 10:21:59;;;;;;;4.38;1.83;;;;;;;;;;5048545;28;20051;-67
2022/05/08 10:24:28;;;;;;;4.57;2.00;;;;;;;;;;5030888;28;20063;-67
2022/05/08 10:27:10;;;;;;;4.43;1.70;;;;;;;;;;5048505;28;20084;-67
2022/05/08 10:29:37;;;;;;;3.92;1.80;;;;;;;;;;5047885;28;20119;-66
2022/05/08 10:32:06;;;;;;;5.40;2.10;;;;;;;;;;5048386;28;20045;-66
2022/05/08 10:34:37;;;;;;;5.72;2.40;;;;;;;;;;5029168;28;20045;-68
2022/05/08 10:37:12;;;;;;;9.93;1.80;;;;;;;;;;5048309;28;20129;-67
2022/05/08 10:39:42;;;;;;;5.25;1.80;;;;;;;;;;5030316;28;20052;-68
2022/05/08 10:42:26;;;;;;;5.18;1.70;;;;;;;;;;5047502;28;20092;-67
2022/05/08 10:44:52;;;;;;;5.65;1.73;;;;;;;;;;5047060;28;20144;-67
2022/05/08 10:47:34;;;;;;;5.00;1.70;;;;;;;;;;5047948;28;20383;-67
2022/05/08 10:50:11;;;;;;;4.88;1.60;;;;;;;;;;5048261;28;20049;-67
2022/05/08 10:52:41;;;;;;;5.15;1.60;;;;;;;;;;5029801;28;20056;-67
2022/05/08 10:55:09;;;;;;;5.40;2.15;;;;;;;;;;5047924;28;20099;-68
2022/05/08 10:57:36;;;;;;;4.10;1.80;;;;;;;;;;5048249;28;20491;-69
2022/05/08 11:00:04;;;;;;;3.33;1.20;;;;;;;;;;5047964;28;20045;-67
2022/05/08 11:02:43;;;;;;;4.68;1.77;;;;;;;;;;5029531;28;20406;-67
2022/05/08 11:05:10;;;;;;;4.60;1.58;;;;;;;;;;5047741;28;20064;-68
2022/05/08 11:07:40;;;;;;;4.20;1.60;;;;;;;;;;5047864;28;20127;-68
2022/05/08 11:10:22;;;;;;;3.85;1.40;;;;;;;;;;5046694;28;20076;-68
2022/05/08 11:13:10;;;;;;;6.15;1.85;;;;;;;;;;5047572;28;20086;-69
2022/05/08 11:15:46;;;;;;;4.40;1.63;;;;;;;;;;5030111;28;20053;-68
2022/05/08 11:18:15;;;;;;;6.78;1.65;;;;;;;;;;5047711;28;20477;-68
2022/05/08 11:20:51;;;;;;;4.30;1.70;;;;;;;;;;5033500;28;20045;-68
2022/05/08 11:23:19;;;;;;;2.58;1.38;;;;;;;;;;5051471;28;20059;-68
2022/05/08 11:25:45;;;;;;;5.70;1.70;;;;;;;;;;5051198;28;20040;-68
2022/05/08 11:28:15;;;;;;;3.25;1.55;;;;;;;;;;5032851;28;20501;-68
2022/05/08 11:30:41;;;;;;;6.97;2.30;;;;;;;;;;5051333;28;20049;-68
2022/05/08 11:36:06;;;;;;;6.00;1.52;;;;;;;;;;5051148;28;20080;-68
2022/05/08 11:38:39;;;;;;;6.00;1.42;;;;;;;;;;5033434;28;20045;-67
2022/05/08 11:41:07;;;;;;;6.47;1.90;;;;;;;;;;5050416;28;20048;-68
2022/05/08 11:43:36;;;;;;;12.35;2.47;;;;;;;;;;5051146;28;20404;-68
2022/05/08 11:46:02;;;;;;;4.28;1.60;;;;;;;;;;5050862;28;20418;-68
2022/05/08 11:48:42;;;;;;;4.35;1.75;;;;;;;;;;5051106;28;20138;-68
2022/05/08 11:51:09;;;;;;;4.70;1.60;;;;;;;;;;5049629;28;20119;-69
2022/05/08 11:53:53;;;;;;;10.02;2.42;;;;;;;;;;5049676;28;20037;-69
2022/05/08 11:56:30;;;;;;;3.53;1.60;;;;;;;;;;5049189;28;20045;-70
2022/05/08 11:58:57;;;;;;;4.78;2.10;;;;;;;;;;5050568;28;20060;-69
2022/05/08 12:01:26;;;;;;;5.90;1.50;;;;;;;;;;5015720;28;20442;-69
2022/05/08 12:03:52;;;;;;;4.65;1.67;;;;;;;;;;5047994;28;20074;-69
2022/05/08 12:06:18;;;;;;;6.47;1.60;;;;;;;;;;5049463;28;20495;-69
2022/05/08 12:08:44;;;;;;;5.93;1.60;;;;;;;;;;5049570;28;20037;-70
2022/05/08 12:11:26;;;;;;;7.40;1.77;;;;;;;;;;5048852;28;20422;-70
2022/05/08 12:13:59;;;;;;;7.93;1.50;;;;;;;;;;5049205;28;20475;-69
2022/05/08 12:16:26;;;;;;;6.32;1.48;;;;;;;;;;5048733;28;20045;-68
2022/05/08 12:19:11;;;;;;;5.10;1.83;;;;;;;;;;5049560;28;20044;-67
2022/05/08 12:21:38;;;;;;;9.50;2.13;;;;;;;;;;5048792;28;20053;-68
2022/05/08 12:24:14;;;;;;;7.18;1.98;;;;;;;;;;5049028;28;20420;-68
2022/05/08 12:26:41;;;;;;;5.40;1.58;;;;;;;;;;5049421;28;20037;-71
2022/05/08 12:29:21;;;;;;;4.28;1.30;;;;;;;;;;5048445;28;20159;-69
2022/05/08 12:31:50;;;;;;;7.82;1.73;;;;;;;;;;5046764;28;20041;-69
2022/05/08 12:34:16;;;;;;;4.37;1.60;;;;;;;;;;5031159;28;20355;-68
2022/05/08 12:36:42;;;;;;;7.50;1.75;;;;;;;;;;5048867;28;20045;-69
2022/05/08 12:39:09;;;;;;;5.63;1.40;;;;;;;;;;5048945;28;20131;-68
2022/05/08 12:41:36;;;;;;;6.07;1.65;;;;;;;;;;5046590;28;20048;-68
2022/05/08 12:44:02;;;;;;;5.55;1.63;;;;;;;;;;5049500;28;20044;-67
2022/05/08 12:46:28;;;;;;;4.63;1.75;;;;;;;;;;5048574;28;20407;-68
2022/05/08 12:49:00;;;;;;;4.82;1.75;;;;;;;;;;5048730;28;20045;-69
2022/05/08 12:51:27;;;;;;;5.75;1.70;;;;;;;;;;5050026;28;20045;-70
2022/05/08 12:53:53;;;;;;;4.18;2.10;;;;;;;;;;5048863;28;20056;-67
2022/05/08 12:56:19;;;;;;;7.22;1.90;;;;;;;;;;5049440;28;20033;-68
2022/05/08 13:01:30;;;;;;;5.00;1.58;;;;;;;;;;5030879;28;20049;-67
2022/05/08 13:03:56;;;;;;;4.05;1.65;;;;;;;;;;5048988;28;20041;-68
2022/05/08 13:06:22;;;;;;;3.60;1.23;;;;;;;;;;5030526;28;20044;-68
2022/05/08 13:08:48;;;;;;;6.07;1.65;;;;;;;;;;5049187;28;20041;-68
2022/05/08 13:11:14;;;;;;;4.50;1.50;;;;;;;;;;5048506;28;20060;-73
2022/05/08 13:13:41;;;;;;;7.15;1.83;;;;;;;;;;5029663;28;20045;-66
2022/05/08 13:16:11;;;;;;;10.23;2.70;;;;;;;;;;5047633;28;20049;-67
2022/05/08 13:18:37;;;;;;;11.13;2.05;;;;;;;;;;5048114;28;20121;-67
2022/05/08 13:21:03;;;;;;;12.90;2.33;;;;;;;;;;5048083;28;20095;-67
2022/05/08 13:23:29;;;;;;;8.70;2.22;;;;;;;;;;5030844;28;20415;-67
2022/05/08 13:25:55;;;;;;;9.48;2.35;;;;;;;;;;5047883;28;20052;-67
2022/05/08 13:28:21;;;;;;;8.93;1.92;;;;;;;;;;5047594;28;20048;-67
2022/05/08 13:30:47;;;;;;;8.43;2.22;;;;;;;;;;5048005;28;20045;-68
2022/05/08 13:33:13;;;;;;;7.13;2.38;;;;;;;;;;5047799;28;20546;-67
2022/05/08 13:35:39;;;;;;;6.07;1.77;;;;;;;;;;5047749;28;20091;-67
2022/05/08 13:38:06;;;;;;;8.07;2.22;;;;;;;;;;5047345;28;20044;-67
2022/05/08 13:40:32;;;;;;;7.15;2.08;;;;;;;;;;5048013;28;20119;-67
2022/05/08 13:42:58;;;;;;;10.00;2.60;;;;;;;;;;5046708;28;20041;-67
2022/05/08 13:45:24;;;;;;;10.55;2.42;;;;;;;;;;5048050;28;20041;-67
2022/05/08 13:47:50;;;;;;;6.80;1.45;;;;;;;;;;5047910;28;20043;-67
2022/05/08 13:50:16;;;;;;;6.13;1.88;;;;;;;;;;5047314;28;20076;-67
2022/05/08 13:52:43;;;;;;;9.15;2.25;;;;;;;;;;5047853;28;20109;-67
2022/05/08 13:55:15;;;;;;;8.57;1.85;;;;;;;;;;5045940;28;20044;-66
2022/05/08 13:57:42;;;;;;;6.60;1.70;;;;;;;;;;5047331;28;20122;-67
2022/05/08 14:00:14;;;;;;;9.20;1.65;;;;;;;;;;5047092;28;20124;-67
2022/05/08 14:02:40;;;;;;;6.25;2.03;;;;;;;;;;5030026;28;20053;-67
2022/05/08 14:05:06;;;;;;;6.50;1.70;;;;;;;;;;5047134;28;20136;-67
2022/05/08 14:07:35;;;;;;;7.22;2.13;;;;;;;;;;5047723;28;20059;-67
2022/05/08 14:10:01;;;;;;;5.97;1.45;;;;;;;;;;5047580;28;20048;-67
2022/05/08 14:12:27;;;;;;;7.43;2.05;;;;;;;;;;5029339;28;20057;-67
2022/05/08 14:14:54;;;;;;;6.57;1.75;;;;;;;;;;5046579;28;20083;-66
2022/05/08 14:17:20;;;;;;;6.20;1.90;;;;;;;;;;5047639;28;20041;-67
2022/05/08 14:19:46;;;;;;;5.00;1.70;;;;;;;;;;5046563;28;20071;-67
2022/05/08 14:22:12;;;;;;;7.93;1.80;;;;;;;;;;5029107;28;20053;-67
2022/05/08 14:24:38;;;;;;;6.50;1.90;;;;;;;;;;5029827;28;20449;-67
2022/05/08 14:27:06;;;;;;;8.23;1.90;;;;;;;;;;5047145;28;20124;-67
2022/05/08 14:29:32;;;;;;;5.15;1.58;;;;;;;;;;5029521;28;20048;-67
2022/05/08 14:37:28;;;;;;;5.63;1.75;;;;;;;;;;5047046;28;20145;-68
2022/05/08 14:39:54;;;;;;;6.75;1.60;;;;;;;;;;5047292;28;20056;-68
2022/05/08 14:42:20;;;;;;;5.88;1.48;;;;;;;;;;5028881;28;20079;-67
2022/05/08 14:44:46;;;;;;;5.13;1.42;;;;;;;;;;5029175;28;20045;-67
2022/05/08 14:47:14;;;;;;;5.47;1.67;;;;;;;;;;5046880;28;20160;-68
2022/05/08 14:49:41;;;;;;;3.95;1.65;;;;;;;;;;5046710;28;20510;-68
2022/05/08 14:52:08;;;;;;;6.78;1.50;;;;;;;;;;5046464;28;20517;-68
2022/05/08 14:54:34;;;;;;;4.80;1.63;;;;;;;;;;5049741;28;20148;-68
2022/05/08 14:57:00;;;;;;;5.05;1.85;;;;;;;;;;5050874;28;20086;-69
2022/05/08 14:59:26;;;;;;;4.20;1.40;;;;;;;;;;5050522;28;20049;-68
2022/05/08 15:01:52;;;;;;;6.97;1.67;;;;;;;;;;5051585;28;20051;-69
2022/05/08 15:04:18;;;;;;;5.88;1.77;;;;;;;;;;5050842;28;20074;-68
2022/05/08 15:06:44;;;;;;;5.32;1.63;;;;;;;;;;5050607;28;20033;-69
2022/05/08 15:09:13;;;;;;;5.10;1.80;;;;;;;;;;5050446;28;20041;-68
2022/05/08 15:11:40;;;;;;;3.97;1.30;;;;;;;;;;5051306;28;20064;-69
2022/05/08 15:14:06;;;;;;;5.18;1.45;;;;;;;;;;5050360;28;20052;-70
2022/05/08 15:16:32;;;;;;;4.05;1.25;;;;;;;;;;5050405;28;20044;-68
2022/05/08 15:18:58;;;;;;;4.03;1.70;;;;;;;;;;5050043;28;20059;-68